x

Central Aleutians 230nm Sw Dutch Harbor (46072) Wave Buoy

8:50 - Sat 18th Apr 2015 All times are UTC.

  • Sig Wave height 16.1ft
  • Peak Period 11s
  • Average Period 7s
  • Wind
    34mph, 40mph gusts
  • Sea Temp 41°f
  • Ar Temp 35°f
  • Sea Pressure 989.9mb

More Historic Weather Station data

Upgrade to MSW Pro to gain access to the past 30 days of data for over 8000 Wavebouys and Weather Stations around the globe.

Join Pro

Comparision Forecast

View Surf forecast
   
Sáb 04/18 8:50 16ft 11s 7s 34 40 mph 989.9mb 41f 35f
7:50 19ft 11s 8s 34 43 mph 989.5mb 41f 36f
6:50 18ft 11s 8s 34 43 mph 988.9mb 41f 37f
5:50 17.5ft 10s 7s 36 43 mph 988.1mb 41f 37f
4:50 15.5ft 11s 7s 34 43 mph 987.8mb 41f 35f
3:50 15.5ft 9s 7s 34 43 mph 987.6mb 41f 35f
2:50 15.5ft 9s 7s 31 40 mph 987.4mb 41f 36f
1:50 15ft 10s 7s 34 40 mph 987.3mb 41f 36f
12:50 16.5ft 11s 7s 34 40 mph 987.5mb 41f 37f
Sex 04/17 11:50 17.5ft 11s 7s 34 40 mph 987.8mb 41f 36f
10:50 17ft 10s 7s 31 38 mph 988.1mb 41f 37f
9:50 17.5ft 10s 7s 34 40 mph 988.4mb 41f 37f
8:50 16.5ft 11s 7s 34 40 mph 988.5mb 41f 37f
7:50 16.5ft 11s 7s 36 43 mph 988.3mb 41f 37f
6:50 16.5ft 10s 7s 34 40 mph 988.4mb 41f 37f
5:50 15.5ft 11s 7s 31 38 mph 988.6mb 41f 37f
4:50 15.5ft 11s 7s 31 40 mph 988.5mb 41f 36f
3:50 15ft 11s 7s 31 40 mph 988.4mb 41f 36f
2:50 17.5ft 10s 8s 34 43 mph 988.6mb 41f 37f
1:50 18ft 11s 8s 31 38 mph 988.8mb 41f 37f
12:50 19.5ft 11s 8s 31 38 mph 989.1mb 41f 37f
11:50 17.5ft 10s 7s 34 43 mph 989.7mb 41f 37f
10:50 17ft 11s 7s 31 40 mph 990.1mb 41f 37f
9:50 18.5ft 11s 7s 29 34 mph 990.5mb 41f 37f
8:50 17.5ft 10s 7s 31 40 mph 990.5mb 41f 39f
7:50 17ft 10s 7s 31 40 mph 990.7mb 41f 39f
6:50 18.5ft 10s 8s 36 49 mph 990.3mb 41f 39f
5:50 15.5ft 11s 7s 34 40 mph 990.3mb 41f 39f
4:50 18ft 10s 7s 31 45 mph 990.4mb 41f 38f
3:50 16.5ft 10s 7s 34 40 mph 990.4mb 41f 38f
2:50 17.5ft 10s 7s 34 43 mph 990.6mb 41f 38f
1:50 17.5ft 10s 7s 34 43 mph 991.2mb 41f 38f
12:50 18ft 10s 7s 36 40 mph 991.5mb 41f 38f
Qui 04/16 11:50 19.5ft 9s 7s 36 47 mph 991.6mb 41f 38f
10:50 17.5ft 8s 7s 36 45 mph 992.1mb 41f 38f
9:50 16ft 8s 7s 36 45 mph 992.6mb 41f 37f
8:50 14ft 8s 6s 34 40 mph 993mb 41f 37f
7:50 14ft 8s 6s 34 43 mph 993.5mb 41f 37f
6:50 12ft 8s 6s 36 40 mph 993.7mb 41f 38f
5:50 13ft 8s 6s 34 40 mph 994.1mb 41f 38f
4:50 11ft 7s 6s 34 40 mph 994.6mb 41f 38f
3:50 10.5ft 7s 5s 34 40 mph 995.4mb 41f 38f
2:50 9.5ft 7s 5s 31 40 mph 996.6mb 41f 36f
1:50 9.5ft 6s 5s 31 36 mph 997.6mb 41f 37f
12:50 8.5ft 6s 5s 31 38 mph 998.8mb 41f 37f
11:50 8ft 6s 5s 29 36 mph 1000mb 41f 37f
10:50 8ft 5s 5s 29 36 mph 1001.5mb 41f 35f
9:50 7ft 5s 5s 29 34 mph 1002.7mb 41f 37f
8:50 7ft 10s 5s 25 31 mph 1004mb 41f 35f
7:50 7ft 11s 5s 22 29 mph 1005.1mb 41f 36f
6:50 6.5ft 10s 6s 18 22 mph 1006.1mb 41f 34f
5:50 7ft 11s 6s 18 22 mph 1006.7mb 41f 36f
4:50 7ft 11s 7s 18 20 mph 1007.6mb 41f 36f
3:50 6.5ft 11s 6s 18 22 mph 1008.5mb 41f 36f
2:50 7ft 11s 7s 13 18 mph 1009.7mb 41f 36f
1:50 6.5ft 12s 7s 13 18 mph 1010.8mb 41f 35f
12:50 6.5ft 12s 7s 16 20 mph 1011.6mb 41f 35f
Qua 04/15 11:50 7ft 12s 8s 13 16 mph 1012.7mb 41f 35f
10:50 6.5ft 10s 8s 13 18 mph 1013.4mb 41f 35f
9:50 7ft 10s 7s 7 9 mph 1014.1mb 41f 36f
8:50 7ft 9s 7s 2 4 mph 1014.4mb 41f 36f
7:50 8ft 8s 7s 2 4 mph 1014.6mb 41f 35f
6:50 7.5ft 8s 6s  -  2 mph 1014.7mb 41f 35f
5:50 8ft 8s 7s 4 7 mph 1014.7mb 41f 34f
4:50 8.5ft 9s 7s 7 11 mph 1014.6mb 41f 34f
3:50 9ft 11s 7s 11 13 mph 1015mb 41f 34f
2:50 9ft 10s 7s 7 11 mph 1015.3mb 41f 33f
1:50 8ft 11s 7s 11 20 mph 1015.2mb 41f 34f
12:50 8ft 9s 7s 16 20 mph 1014.9mb 41f 35f
11:50 8ft 10s 7s 13 16 mph 1015.1mb 41f 35f
10:50 7.5ft 10s 7s 16 20 mph 1014.8mb 41f 35f
9:50 8ft 11s 6s 16 18 mph 1014.6mb 41f 34f
8:50 8.5ft 9s 6s 18 25 mph 1014.3mb 41f 35f
7:50 9ft 11s 6s 20 27 mph 1014.1mb 41f 35f
6:50 10ft 8s 6s 20 25 mph 1013.8mb 41f 35f
5:50 10ft 7s 6s 20 25 mph 1013.3mb 41f 34f
4:50 11ft 8s 7s 22 29 mph 1013mb 41f 35f
3:50 12ft 10s 7s 25 31 mph 1012.3mb 41f 35f
2:50 12ft 9s 7s 25 31 mph 1011.9mb 41f 34f
1:50 11ft 10s 7s 25 31 mph 1011.6mb 41f 32f
12:50 11.5ft 11s 7s 25 31 mph 1011mb 41f 34f
Ter 04/14 11:50 12ft 11s 7s 25 29 mph 1010.3mb 41f 34f
10:50 12ft 13s 7s 25 31 mph 1009.9mb 41f 33f
9:50 11.5ft 12s 7s 25 34 mph 1009.3mb 41f 34f
8:50 11.5ft 9s 7s 27 31 mph 1008.5mb 41f 34f
7:50 12.5ft 8s 7s 25 31 mph 1007.5mb 41f 33f
6:50 12.5ft 13s 7s 29 34 mph 1006.4mb 41f 33f
5:50 13ft 11s 7s 27 31 mph 1005.5mb 41f 33f
4:50 15ft 10s 7s 22 29 mph 1004.5mb 41f 34f
3:50 15.5ft 14s 8s 27 36 mph 1003mb 41f 33f
2:50 15ft 15s 7s 31 38 mph 1001.7mb 41f 34f
1:50 15.5ft 15s 8s 27 34 mph 1000.8mb 41f 34f
12:50 16ft 14s 8s 31 38 mph 999.2mb 41f 36f
11:50 16.5ft 16s 8s 29 36 mph 998.2mb 41f 35f
10:50 15.5ft 14s 8s 31 40 mph 996.5mb 41f 37f
9:50 17.5ft 12s 8s 29 38 mph 995.4mb 41f 36f